createdAt,value
2023-03-28T00:01:06.205Z,4.33
2023-03-28T00:03:39.958Z,4.39
2023-03-28T00:06:16.573Z,4.54
2023-03-28T00:08:48.139Z,4.56
2023-03-28T00:11:21.311Z,4.19
2023-03-28T00:13:58.039Z,4.35
2023-03-28T00:16:32.432Z,4.44
2023-03-28T00:19:05.883Z,4.56
2023-03-28T00:21:38.015Z,4.68
2023-03-28T00:24:14.065Z,4.48
2023-03-28T00:26:49.602Z,4.58
2023-03-28T00:29:21.968Z,4.54
2023-03-28T00:31:53.072Z,4.45
2023-03-28T00:34:24.137Z,4.45
2023-03-28T00:36:55.507Z,4.44
2023-03-28T00:39:27.910Z,4.47
2023-03-28T00:42:01.673Z,4.58
2023-03-28T00:44:55.588Z,4.54
2023-03-28T00:47:37.995Z,4.55
2023-03-28T00:50:12.687Z,4.48
2023-03-28T00:52:45.266Z,4.57
2023-03-28T00:55:18.391Z,4.53
2023-03-28T00:57:51.352Z,4.47
2023-03-28T01:00:24.526Z,4.53
2023-03-28T01:02:58.507Z,4.70
2023-03-28T01:05:31.446Z,4.72
2023-03-28T01:08:05.970Z,4.68
2023-03-28T01:10:37.834Z,4.75
2023-03-28T01:13:12.110Z,4.77
2023-03-28T01:15:43.670Z,4.80
2023-03-28T01:18:16.532Z,4.80
2023-03-28T01:21:06.703Z,4.79
2023-03-28T01:24:11.719Z,4.82
2023-03-28T01:26:48.934Z,4.84
2023-03-28T01:29:46.932Z,4.62
2023-03-28T01:32:30.049Z,4.39
2023-03-28T01:35:17.857Z,4.03
2023-03-28T01:37:52.393Z,4.04
2023-03-28T01:40:31.504Z,4.01
2023-03-28T01:43:10.316Z,3.91
2023-03-28T01:45:48.620Z,4.08
2023-03-28T01:48:24.400Z,4.14
2023-03-28T01:50:58.156Z,4.07
2023-03-28T01:53:32.678Z,3.99
2023-03-28T01:56:08.053Z,4.03
2023-03-28T01:58:43.960Z,3.86
2023-03-28T02:01:24.238Z,3.80
2023-03-28T02:03:59.456Z,3.84
2023-03-28T02:06:46.678Z,3.66
2023-03-28T02:09:24.588Z,3.80
2023-03-28T02:12:19.772Z,3.85
2023-03-28T02:15:04.992Z,3.81
2023-03-28T02:17:54.254Z,3.83
2023-03-28T02:20:42.811Z,3.85
2023-03-28T02:23:24.166Z,3.86
2023-03-28T02:26:25.236Z,3.73
2023-03-28T02:29:12.685Z,3.74
2023-03-28T02:31:55.798Z,3.62
2023-03-28T02:34:28.624Z,3.62
2023-03-28T02:37:03.763Z,3.60
2023-03-28T02:39:53.432Z,3.68
2023-03-28T02:42:38.453Z,3.70
2023-03-28T02:45:30.386Z,3.63
2023-03-28T02:48:08.238Z,3.72
2023-03-28T02:50:44.877Z,3.43
2023-03-28T02:53:22.349Z,3.46
2023-03-28T02:55:56.124Z,3.55
2023-03-28T02:58:48.983Z,3.56
2023-03-28T03:01:21.284Z,3.49
2023-03-28T03:03:52.705Z,3.38
2023-03-28T03:06:24.297Z,3.28
2023-03-28T03:08:58.042Z,3.44
2023-03-28T03:11:29.455Z,3.28
2023-03-28T03:14:01.691Z,3.30
2023-03-28T03:16:34.595Z,3.30
2023-03-28T03:19:06.334Z,3.35
2023-03-28T03:21:37.728Z,3.18
2023-03-28T03:24:10.692Z,3.27
2023-03-28T03:26:43.827Z,3.16
2023-03-28T03:29:19.501Z,3.17
2023-03-28T03:31:51.161Z,3.11
2023-03-28T03:34:51.431Z,3.03
2023-03-28T03:37:22.813Z,2.83
2023-03-28T03:39:54.140Z,2.81
2023-03-28T03:42:30.105Z,2.93
2023-03-28T03:45:02.150Z,3.02
2023-03-28T03:47:33.262Z,2.98
2023-03-28T03:50:04.557Z,2.97
2023-03-28T03:52:37.031Z,3.04
2023-03-28T03:55:09.917Z,2.96
2023-03-28T03:57:42.795Z,2.99
2023-03-28T04:00:15.050Z,3.02
2023-03-28T04:02:52.003Z,2.99
2023-03-28T04:05:28.838Z,2.76
2023-03-28T04:08:08.204Z,2.84
2023-03-28T04:10:42.822Z,2.95
2023-03-28T04:13:13.902Z,2.92
2023-03-28T04:15:47.163Z,2.88
2023-03-28T04:18:45.820Z,3.02
2023-03-28T04:21:18.036Z,2.87
2023-03-28T04:23:49.873Z,2.89
2023-03-28T04:26:56.197Z,2.97
2023-03-28T04:29:31.733Z,2.94
2023-03-28T04:32:24.838Z,2.90
2023-03-28T04:35:09.248Z,2.88
2023-03-28T04:37:40.609Z,2.97
2023-03-28T04:40:16.637Z,3.02
2023-03-28T04:43:13.073Z,2.95
2023-03-28T04:45:52.771Z,2.93
2023-03-28T04:48:26.451Z,3.01
2023-03-28T04:50:58.471Z,2.95
2023-03-28T04:53:30.413Z,2.93
2023-03-28T04:56:25.150Z,2.81
2023-03-28T04:58:56.489Z,2.93
2023-03-28T05:01:31.175Z,2.89
2023-03-28T05:04:25.981Z,2.95
2023-03-28T05:06:57.981Z,3.00
2023-03-28T05:09:29.724Z,2.91
2023-03-28T05:12:01.091Z,2.84
2023-03-28T05:14:32.453Z,2.93
2023-03-28T05:17:14.558Z,3.08
2023-03-28T05:19:59.645Z,2.99
2023-03-28T05:22:36.622Z,2.97
2023-03-28T05:25:09.052Z,3.09
2023-03-28T05:27:43.307Z,3.10
2023-03-28T05:30:15.464Z,3.30
2023-03-28T05:32:47.449Z,3.36
2023-03-28T05:35:19.592Z,3.32
2023-03-28T05:37:51.758Z,3.16
2023-03-28T05:40:24.000Z,3.15
2023-03-28T05:42:55.545Z,3.22
2023-03-28T05:45:28.172Z,3.22
2023-03-28T05:48:03.780Z,3.31
2023-03-28T05:50:35.424Z,3.42
2023-03-28T05:53:10.407Z,3.33
2023-03-28T05:55:42.436Z,3.41
2023-03-28T05:58:13.779Z,3.42
2023-03-28T06:00:46.698Z,3.42
2023-03-28T06:03:18.070Z,3.40
2023-03-28T06:05:50.705Z,3.32
2023-03-28T06:08:24.641Z,3.30
2023-03-28T06:11:01.037Z,3.34
2023-03-28T06:13:36.655Z,3.46
2023-03-28T06:16:08.822Z,3.40
2023-03-28T06:18:40.149Z,3.45
2023-03-28T06:21:11.288Z,3.58
2023-03-28T06:23:42.530Z,3.54
2023-03-28T06:26:22.233Z,3.66
2023-03-28T06:28:53.840Z,3.75
2023-03-28T06:31:26.965Z,3.73
2023-03-28T06:33:58.126Z,3.74
2023-03-28T06:36:29.220Z,3.55
2023-03-28T06:39:01.682Z,3.68
2023-03-28T06:41:35.246Z,3.60
2023-03-28T06:44:08.120Z,3.58
2023-03-28T06:46:58.917Z,3.55
2023-03-28T06:49:30.382Z,3.53
2023-03-28T06:52:22.157Z,3.47
2023-03-28T06:54:54.507Z,3.45
2023-03-28T06:57:25.720Z,3.42
2023-03-28T07:00:02.861Z,3.52
2023-03-28T07:02:52.926Z,3.66
2023-03-28T07:05:24.572Z,3.78
2023-03-28T07:07:55.826Z,3.76
2023-03-28T07:10:27.220Z,3.79
2023-03-28T07:12:58.467Z,3.75
2023-03-28T07:15:29.472Z,3.65
2023-03-28T07:18:01.679Z,3.65
2023-03-28T07:20:34.298Z,3.49
2023-03-28T07:23:05.636Z,3.83
2023-03-28T07:25:37.389Z,3.94
2023-03-28T07:28:08.837Z,3.86
2023-03-28T07:30:41.506Z,3.86
2023-03-28T07:33:19.836Z,3.86
2023-03-28T07:35:55.296Z,3.72
2023-03-28T07:38:26.672Z,3.82
2023-03-28T07:41:03.091Z,3.87
2023-03-28T07:43:34.538Z,3.91
2023-03-28T07:46:08.320Z,4.01
2023-03-28T07:48:41.116Z,3.92
2023-03-28T07:51:13.140Z,3.97
2023-03-28T07:53:45.249Z,4.01
2023-03-28T07:56:16.369Z,4.09
2023-03-28T07:59:04.620Z,4.12
2023-03-28T08:01:36.022Z,4.20
2023-03-28T08:04:08.967Z,4.08
2023-03-28T08:06:56.314Z,4.12
2023-03-28T08:09:28.086Z,4.05
2023-03-28T08:12:25.294Z,3.89
2023-03-28T08:14:56.682Z,3.90
2023-03-28T08:17:28.209Z,3.64
2023-03-28T08:19:59.974Z,3.58
2023-03-28T08:22:53.929Z,3.46
2023-03-28T08:25:59.911Z,3.63
2023-03-28T08:28:31.424Z,3.59
2023-03-28T08:31:03.887Z,3.64
2023-03-28T08:33:35.654Z,3.55
2023-03-28T08:36:07.936Z,3.25
2023-03-28T08:38:39.672Z,3.30
2023-03-28T08:41:19.985Z,3.31
2023-03-28T08:44:10.867Z,3.39
2023-03-28T08:46:43.875Z,3.57
2023-03-28T08:49:17.397Z,3.64
2023-03-28T08:51:50.549Z,3.78
2023-03-28T08:54:24.637Z,3.90
2023-03-28T08:56:57.529Z,3.81
2023-03-28T08:59:30.753Z,3.96
2023-03-28T09:02:02.329Z,4.06
2023-03-28T09:04:36.065Z,4.19
2023-03-28T09:07:15.693Z,4.24
2023-03-28T09:09:54.889Z,4.13
2023-03-28T09:12:39.713Z,4.24
2023-03-28T09:15:22.035Z,4.21
2023-03-28T09:17:58.660Z,4.21
2023-03-28T09:20:35.161Z,4.22
2023-03-28T09:25:53.036Z,4.34
2023-03-28T09:28:38.917Z,4.35
2023-03-28T09:31:15.546Z,4.22
2023-03-28T09:33:50.821Z,4.12
2023-03-28T09:36:45.332Z,3.92
2023-03-28T09:39:33.414Z,3.73
2023-03-28T09:42:13.985Z,4.13
2023-03-28T09:45:30.690Z,4.24
2023-03-28T09:48:05.103Z,4.36
2023-03-28T09:50:39.976Z,4.59
2023-03-28T09:53:23.544Z,4.67
2023-03-28T09:56:04.395Z,4.78
2023-03-28T09:58:54.835Z,4.70
2023-03-28T10:01:44.056Z,4.94
2023-03-28T10:04:38.372Z,4.80
2023-03-28T10:07:43.962Z,4.87
2023-03-28T10:10:43.433Z,4.97
2023-03-28T10:13:21.119Z,4.93
2023-03-28T10:15:57.955Z,4.93
2023-03-28T10:18:59.448Z,4.97
2023-03-28T10:21:40.876Z,5.01
2023-03-28T10:24:21.824Z,5.00
2023-03-28T10:27:13.605Z,5.17
2023-03-28T10:29:47.781Z,5.26
2023-03-28T10:32:29.925Z,5.00
2023-03-28T10:35:26.403Z,4.70
2023-03-28T10:38:18.386Z,4.70
2023-03-28T10:41:21.866Z,4.62
2023-03-28T10:44:27.511Z,4.73
2023-03-28T10:47:12.423Z,4.98
2023-03-28T10:49:56.214Z,4.95
2023-03-28T10:52:37.836Z,4.97
2023-03-28T10:55:17.668Z,4.91
2023-03-28T10:58:09.233Z,4.66
2023-03-28T11:00:57.737Z,4.48
2023-03-28T11:03:45.894Z,4.76
2023-03-28T11:06:24.318Z,4.98
2023-03-28T11:09:05.092Z,4.93
2023-03-28T11:12:10.230Z,4.73
2023-03-28T11:14:56.601Z,4.32
2023-03-28T11:17:43.576Z,4.24
2023-03-28T11:20:30.991Z,4.42
2023-03-28T11:23:34.543Z,4.55
2023-03-28T11:26:33.552Z,4.82
2023-03-28T11:29:43.594Z,4.95
2023-03-28T11:32:23.184Z,5.09
2023-03-28T11:35:08.661Z,5.08
2023-03-28T11:37:48.012Z,4.87
2023-03-28T11:40:28.935Z,4.62
2023-03-28T11:43:13.370Z,4.49
2023-03-28T11:45:53.344Z,4.41
2023-03-28T11:48:36.140Z,4.47
2023-03-28T11:51:14.431Z,4.89
2023-03-28T11:53:59.152Z,5.22
2023-03-28T11:56:44.680Z,5.36
2023-03-28T11:59:31.803Z,5.29
2023-03-28T12:02:11.694Z,5.28
2023-03-28T12:04:51.017Z,5.01
2023-03-28T12:07:30.533Z,5.11
2023-03-28T12:10:20.027Z,5.19
2023-03-28T12:13:02.952Z,5.25
2023-03-28T12:15:44.360Z,5.36
2023-03-28T12:18:29.433Z,5.34
2023-03-28T12:21:10.630Z,5.28
2023-03-28T12:24:02.266Z,5.18
2023-03-28T12:26:59.540Z,5.36
2023-03-28T12:29:40.047Z,5.35
2023-03-28T12:32:27.643Z,5.20
2023-03-28T12:35:13.702Z,5.23
2023-03-28T12:38:14.936Z,5.44
2023-03-28T12:40:57.717Z,5.43
2023-03-28T12:43:39.645Z,5.34
2023-03-28T12:46:18.014Z,5.62
2023-03-28T12:48:57.689Z,5.86
2023-03-28T12:51:38.999Z,6.01
2023-03-28T12:54:26.529Z,5.82
2023-03-28T12:57:18.944Z,5.90
2023-03-28T13:00:16.581Z,5.93
2023-03-28T13:03:28.827Z,6.03
2023-03-28T13:06:13.605Z,5.83
2023-03-28T13:09:04.605Z,5.60
2023-03-28T13:11:52.787Z,5.66
2023-03-28T13:14:38.015Z,5.80
2023-03-28T13:17:19.952Z,6.11
2023-03-28T13:19:55.984Z,6.00
2023-03-28T13:22:40.604Z,5.97
2023-03-28T13:25:32.350Z,6.04
2023-03-28T13:28:29.652Z,6.22
2023-03-28T13:31:11.484Z,6.13
2023-03-28T13:33:50.991Z,6.05
2023-03-28T13:36:29.872Z,6.14
2023-03-28T13:39:22.427Z,6.24
2023-03-28T13:42:02.190Z,6.27
2023-03-28T13:44:41.635Z,6.26
2023-03-28T13:47:32.309Z,6.20
2023-03-28T13:50:16.011Z,6.29
2023-03-28T13:52:48.917Z,6.41
2023-03-28T13:55:23.836Z,6.33
2023-03-28T13:57:57.005Z,6.10
2023-03-28T14:00:31.225Z,6.01
2023-03-28T14:03:06.664Z,6.25
2023-03-28T14:05:46.623Z,6.44
2023-03-28T14:08:26.618Z,6.51
2023-03-28T14:11:00.982Z,6.73
2023-03-28T14:13:33.956Z,6.84
2023-03-28T14:16:10.544Z,6.93
2023-03-28T14:18:48.767Z,7.00
2023-03-28T14:21:24.087Z,6.81
2023-03-28T14:24:03.516Z,6.90
2023-03-28T14:26:38.166Z,6.81
2023-03-28T14:29:15.350Z,6.68
2023-03-28T14:31:49.938Z,6.63
2023-03-28T14:34:26.275Z,6.57
2023-03-28T14:37:00.956Z,6.61
2023-03-28T14:39:35.127Z,6.61
2023-03-28T14:42:13.679Z,6.64
2023-03-28T14:44:48.654Z,6.71
2023-03-28T14:47:28.046Z,6.55
2023-03-28T14:50:01.616Z,6.36
2023-03-28T14:52:37.247Z,6.54
2023-03-28T14:55:15.948Z,6.57
2023-03-28T14:57:51.038Z,6.60
2023-03-28T15:00:36.545Z,6.51
2023-03-28T15:03:13.657Z,6.47
2023-03-28T15:05:48.812Z,6.31
2023-03-28T15:08:30.987Z,6.30
2023-03-28T15:11:07.310Z,6.37
2023-03-28T15:13:41.190Z,6.43
2023-03-28T15:16:21.200Z,6.38
2023-03-28T15:19:07.024Z,6.44
2023-03-28T15:21:42.721Z,6.41
2023-03-28T15:24:19.842Z,6.43
2023-03-28T15:26:57.856Z,6.31
2023-03-28T15:29:34.559Z,6.27
2023-03-28T15:32:12.628Z,6.40
2023-03-28T15:34:55.934Z,6.19
2023-03-28T15:37:29.817Z,6.26
2023-03-28T15:40:29.169Z,6.20
2023-03-28T15:43:04.032Z,6.16
2023-03-28T15:45:45.610Z,6.21
2023-03-28T15:48:20.878Z,6.20
2023-03-28T15:50:56.759Z,6.27
2023-03-28T15:53:32.166Z,6.34
2023-03-28T15:56:12.189Z,6.29
2023-03-28T15:58:47.360Z,6.30
2023-03-28T16:01:26.512Z,6.32
2023-03-28T16:04:31.642Z,6.16
2023-03-28T16:07:14.091Z,6.06
2023-03-28T16:09:47.940Z,6.12
2023-03-28T16:12:21.316Z,6.20
2023-03-28T16:15:14.341Z,6.13
2023-03-28T16:17:55.621Z,6.15
2023-03-28T16:20:50.722Z,6.20
2023-03-28T16:23:27.245Z,6.13
2023-03-28T16:26:00.398Z,6.13
2023-03-28T16:28:33.291Z,6.03
2023-03-28T16:31:06.800Z,6.03
2023-03-28T16:33:39.386Z,5.95
2023-03-28T16:36:14.245Z,6.12
2023-03-28T16:38:47.410Z,6.15
2023-03-28T16:41:21.917Z,6.12
2023-03-28T16:43:54.643Z,6.11
2023-03-28T16:46:27.778Z,6.20
2023-03-28T16:49:01.328Z,6.22
2023-03-28T16:51:34.541Z,6.22
2023-03-28T16:54:08.045Z,5.95
2023-03-28T16:56:42.824Z,5.90
2023-03-28T16:59:16.278Z,5.70
2023-03-28T17:01:49.097Z,5.75
2023-03-28T17:04:21.627Z,5.83
2023-03-28T17:06:54.679Z,5.67
2023-03-28T17:09:27.939Z,5.65
2023-03-28T17:12:00.740Z,5.62
2023-03-28T17:14:33.635Z,5.54
2023-03-28T17:17:07.023Z,5.53
2023-03-28T17:19:40.009Z,5.45
2023-03-28T17:22:13.362Z,5.43
2023-03-28T17:24:46.958Z,5.55
2023-03-28T17:27:21.338Z,5.52
2023-03-28T17:29:54.270Z,5.48
2023-03-28T17:32:27.343Z,5.48
2023-03-28T17:35:00.227Z,5.35
2023-03-28T17:37:33.165Z,5.30
2023-03-28T17:40:06.971Z,5.34
2023-03-28T17:42:39.738Z,5.37
2023-03-28T17:45:13.299Z,5.41
2023-03-28T17:47:46.188Z,5.35
2023-03-28T17:50:18.970Z,5.31
2023-03-28T17:52:52.176Z,5.29
2023-03-28T17:55:24.702Z,5.20
2023-03-28T17:57:57.647Z,5.18
2023-03-28T18:00:31.517Z,5.07
2023-03-28T18:03:04.346Z,5.09
2023-03-28T18:06:00.528Z,4.96
2023-03-28T18:08:34.045Z,5.03
2023-03-28T18:11:09.293Z,5.05
2023-03-28T18:13:42.154Z,5.02
2023-03-28T18:16:18.440Z,5.01
2023-03-28T18:18:51.200Z,5.00
2023-03-28T18:21:24.161Z,4.88
2023-03-28T18:23:57.234Z,4.80
2023-03-28T18:26:31.408Z,4.89
2023-03-28T18:29:04.894Z,4.89
2023-03-28T18:31:39.114Z,4.88
2023-03-28T18:34:12.118Z,4.87
2023-03-28T18:36:45.584Z,4.86
2023-03-28T18:39:18.419Z,4.83
2023-03-28T18:41:51.182Z,4.87
2023-03-28T18:44:24.299Z,4.95
2023-03-28T18:46:58.395Z,4.85
2023-03-28T18:49:31.543Z,4.88
2023-03-28T18:52:05.282Z,4.84
2023-03-28T18:54:38.844Z,4.78
2023-03-28T18:57:11.690Z,4.75
2023-03-28T18:59:44.296Z,4.78
2023-03-28T19:02:17.650Z,4.84
2023-03-28T19:04:51.028Z,4.81
2023-03-28T19:07:23.830Z,4.73
2023-03-28T19:09:56.676Z,4.68
2023-03-28T19:12:30.031Z,4.61
2023-03-28T19:15:02.565Z,4.54
2023-03-28T19:17:38.196Z,4.66
2023-03-28T19:20:13.338Z,4.67
2023-03-28T19:22:46.232Z,4.63
2023-03-28T19:25:19.521Z,4.63
2023-03-28T19:27:52.342Z,4.57
2023-03-28T19:30:25.366Z,4.49
2023-03-28T19:32:58.769Z,4.49
2023-03-28T19:35:31.775Z,4.51
2023-03-28T19:38:04.662Z,4.48
2023-03-28T19:40:38.037Z,4.50
2023-03-28T19:43:10.856Z,4.46
2023-03-28T19:45:43.531Z,4.45
2023-03-28T19:48:16.398Z,4.43
2023-03-28T19:50:51.083Z,4.45
2023-03-28T19:53:22.502Z,4.33
2023-03-28T19:55:56.726Z,4.42
2023-03-28T19:58:29.918Z,4.42
2023-03-28T20:01:04.367Z,4.32
2023-03-28T20:03:35.805Z,4.34
2023-03-28T20:06:10.580Z,4.34
2023-03-28T20:08:42.805Z,4.36
2023-03-28T20:11:16.958Z,4.34
2023-03-28T20:13:50.075Z,4.34
2023-03-28T20:16:23.224Z,4.32
2023-03-28T20:18:56.312Z,4.33
2023-03-28T20:21:29.837Z,4.32
2023-03-28T20:24:03.942Z,4.29
2023-03-28T20:26:36.791Z,4.29
2023-03-28T20:29:13.792Z,4.25
2023-03-28T20:31:46.846Z,4.21
2023-03-28T20:34:20.236Z,4.15
2023-03-28T20:36:56.565Z,4.12
2023-03-28T20:39:34.134Z,4.10
2023-03-28T20:42:07.354Z,4.07
2023-03-28T20:44:40.583Z,3.92
2023-03-28T20:47:15.171Z,3.94
2023-03-28T20:49:48.924Z,3.74
2023-03-28T20:52:21.516Z,3.89
2023-03-28T20:54:54.634Z,3.84
2023-03-28T20:57:30.533Z,3.85
2023-03-28T21:00:07.053Z,3.82
2023-03-28T21:02:40.505Z,3.74
2023-03-28T21:05:14.440Z,3.78
2023-03-28T21:07:47.676Z,3.77
2023-03-28T21:10:20.819Z,3.71
2023-03-28T21:12:53.960Z,3.65
2023-03-28T21:15:28.252Z,3.61
2023-03-28T21:18:00.745Z,3.62
2023-03-28T21:20:33.642Z,3.58
2023-03-28T21:23:06.562Z,3.55
2023-03-28T21:25:39.253Z,3.50
2023-03-28T21:28:12.640Z,3.46
2023-03-28T21:30:45.682Z,3.44
2023-03-28T21:33:19.338Z,3.39
2023-03-28T21:35:54.462Z,3.38
2023-03-28T21:38:28.063Z,3.36
2023-03-28T21:41:01.186Z,3.27
2023-03-28T21:43:34.380Z,3.20
2023-03-28T21:46:07.818Z,3.21
2023-03-28T21:48:41.691Z,3.11
2023-03-28T21:51:15.510Z,3.02
2023-03-28T21:53:49.478Z,2.88
2023-03-28T21:56:23.080Z,3.02
2023-03-28T21:58:56.401Z,3.11
2023-03-28T22:01:28.865Z,3.15
2023-03-28T22:04:02.314Z,3.19
2023-03-28T22:06:35.042Z,3.11
2023-03-28T22:09:08.094Z,3.15
2023-03-28T22:11:42.193Z,3.21
2023-03-28T22:14:14.752Z,3.16
2023-03-28T22:16:49.019Z,3.15
2023-03-28T22:19:21.654Z,3.12
2023-03-28T22:21:54.827Z,3.13
2023-03-28T22:24:30.780Z,3.08
2023-03-28T22:27:04.228Z,3.07
2023-03-28T22:29:38.100Z,3.09
2023-03-28T22:32:11.149Z,3.10
2023-03-28T22:34:44.926Z,3.08
2023-03-28T22:37:17.907Z,3.06
2023-03-28T22:39:50.483Z,3.03
2023-03-28T22:42:23.183Z,3.04
2023-03-28T22:44:55.902Z,3.04
2023-03-28T22:47:30.427Z,3.05
2023-03-28T22:50:01.660Z,3.03
2023-03-28T22:52:35.067Z,3.03
2023-03-28T22:55:11.168Z,3.01
2023-03-28T22:57:44.504Z,3.01
2023-03-28T23:00:18.544Z,3.00
2023-03-28T23:02:51.827Z,2.93
2023-03-28T23:05:25.419Z,2.94
2023-03-28T23:08:00.131Z,2.82
2023-03-28T23:10:31.292Z,2.89
2023-03-28T23:13:04.297Z,2.88
2023-03-28T23:15:37.225Z,2.84
2023-03-28T23:18:09.902Z,2.81
2023-03-28T23:20:42.971Z,2.80
2023-03-28T23:23:15.813Z,2.78
2023-03-28T23:25:48.777Z,2.82
2023-03-28T23:28:21.479Z,2.83
2023-03-28T23:30:54.700Z,2.88
2023-03-28T23:33:27.376Z,2.85
2023-03-28T23:36:00.331Z,2.84
2023-03-28T23:38:34.343Z,2.83
2023-03-28T23:41:07.927Z,2.82
2023-03-28T23:43:40.787Z,2.80
2023-03-28T23:46:13.551Z,2.70
2023-03-28T23:48:46.188Z,2.79
2023-03-28T23:51:19.302Z,2.76
2023-03-28T23:53:52.620Z,2.74
2023-03-28T23:56:25.463Z,2.72
2023-03-28T23:58:58.274Z,2.71
